Time;durP1;ratioP1;P1;durP2;ratioP2;P2;SDS_P1;SDS_P2;PMS_P1;PMS_P2;Temp;Humidity;BMP_temperature;BMP_pressure;BME280_temperature;BME280_humidity;BME280_pressure;Samples;Min_cycle;Max_cycle;Signal;HPM_P1;HPM_P2
2021/12/09 00:02:06;;;;;;;96.87;41.90;;;;;;;5.72;87.96;99488.69;1748821;81;21007;-70
2021/12/09 00:04:32;;;;;;;84.67;45.80;;;;;;;5.72;87.97;99492.61;1724121;81;21065;-70
2021/12/09 00:07:00;;;;;;;91.42;45.75;;;;;;;5.72;87.98;99498.33;1728634;82;21401;-70
2021/12/09 00:09:29;;;;;;;89.37;46.90;;;;;;;5.71;88.00;99504.05;1727541;81;20936;-70
2021/12/09 00:14:32;;;;;;;94.70;43.42;;;;;;;5.74;88.00;99508.22;1712639;81;21525;-71
2021/12/09 00:17:05;;;;;;;104.45;43.55;;;;;;;5.75;88.00;99508.58;1727735;81;20977;-70
2021/12/09 00:19:42;;;;;;;87.22;38.60;;;;;;;5.75;87.99;99513.81;1732287;81;21050;-70
2021/12/09 00:22:25;;;;;;;84.37;38.83;;;;;;;5.74;88.00;99514.30;1721678;83;21058;-70
2021/12/09 00:24:52;;;;;;;88.22;36.20;;;;;;;5.72;87.96;99517.98;1720480;81;22312;-70
2021/12/09 00:27:18;;;;;;;82.50;37.98;;;;;;;5.73;87.98;99526.20;1757137;81;20940;-70
2021/12/09 00:29:45;;;;;;;101.10;37.08;;;;;;;5.72;87.99;99529.30;1745118;81;20955;-69
2021/12/09 00:32:12;;;;;;;76.28;35.03;;;;;;;5.72;87.96;99525.36;1732513;81;21027;-68
2021/12/09 00:34:41;;;;;;;141.85;34.55;;;;;;;5.72;87.96;99529.77;1731117;81;20948;-69
2021/12/09 00:37:18;;;;;;;91.67;36.17;;;;;;;5.72;87.96;99532.39;1721636;81;22630;-69
2021/12/09 00:39:41;;;;;;;77.45;35.78;;;;;;;5.71;87.93;99535.96;1741999;81;21362;-69
2021/12/09 00:42:09;;;;;;;109.57;35.58;;;;;;;5.72;87.94;99533.70;1724871;81;21015;-69
2021/12/09 00:44:36;;;;;;;100.20;35.88;;;;;;;5.70;87.94;99536.44;1735292;81;21008;-69
2021/12/09 00:47:04;;;;;;;80.07;35.50;;;;;;;5.69;87.93;99534.77;1723114;82;21064;-69
2021/12/09 00:49:31;;;;;;;118.97;35.28;;;;;;;5.69;87.93;99538.70;1731898;82;21757;-69
2021/12/09 00:51:58;;;;;;;81.22;35.50;;;;;;;5.69;87.95;99542.63;1731262;81;21358;-69
2021/12/09 00:54:32;;;;;;;81.40;36.70;;;;;;;5.67;87.96;99544.50;1701228;84;21058;-69
2021/12/09 00:57:04;;;;;;;72.70;35.40;;;;;;;5.68;87.96;99546.64;1721859;82;21035;-70
2021/12/09 00:59:31;;;;;;;72.87;35.88;;;;;;;5.69;87.99;99546.56;1728464;83;20968;-70
2021/12/09 01:01:57;;;;;;;81.37;36.83;;;;;;;5.70;88.00;99546.92;1728468;82;22225;-70
2021/12/09 01:04:23;;;;;;;76.45;37.45;;;;;;;5.69;88.03;99547.87;1702370;82;21012;-70
2021/12/09 01:06:50;;;;;;;84.87;39.00;;;;;;;5.70;88.03;99552.16;1723075;82;20964;-69
2021/12/09 01:09:20;;;;;;;86.08;37.33;;;;;;;5.70;88.03;99545.61;1709309;83;20967;-69
2021/12/09 01:11:50;;;;;;;85.67;40.45;;;;;;;5.73;88.04;99552.41;1698905;83;21001;-70
2021/12/09 01:14:16;;;;;;;74.87;40.38;;;;;;;5.74;88.03;99549.66;1716159;83;22189;-69
2021/12/09 01:16:44;;;;;;;74.67;39.73;;;;;;;5.75;88.02;99553.13;1720716;82;21439;-69
2021/12/09 01:19:10;;;;;;;68.05;36.53;;;;;;;5.74;88.04;99546.21;1745761;82;21359;-69
2021/12/09 01:21:37;;;;;;;76.37;38.28;;;;;;;5.74;88.04;99553.59;1745405;82;21412;-69
2021/12/09 01:24:04;;;;;;;65.52;38.48;;;;;;;5.72;88.02;99551.56;1736833;82;21000;-69
2021/12/09 01:26:31;;;;;;;84.28;38.38;;;;;;;5.71;88.06;99556.45;1721525;82;21805;-70
2021/12/09 01:29:02;;;;;;;66.35;40.05;;;;;;;5.70;88.07;99561.80;1714803;81;21423;-69
2021/12/09 01:31:34;;;;;;;82.25;39.25;;;;;;;5.70;88.10;99560.50;1720003;82;21044;-69
2021/12/09 01:34:01;;;;;;;69.50;39.33;;;;;;;5.69;88.11;99558.35;1713068;82;21376;-69
2021/12/09 01:36:34;;;;;;;85.55;41.73;;;;;;;5.72;88.12;99562.05;1699689;82;21016;-69
2021/12/09 01:39:02;;;;;;;76.77;40.92;;;;;;;5.73;88.14;99565.03;1690036;84;22272;-69
2021/12/09 01:41:29;;;;;;;75.85;40.67;;;;;;;5.76;88.13;99566.58;1706849;82;20965;-69
2021/12/09 01:43:55;;;;;;;72.25;41.30;;;;;;;5.77;88.12;99566.11;1706316;82;21044;-69
2021/12/09 01:46:22;;;;;;;70.62;38.78;;;;;;;5.76;88.12;99569.20;1713004;82;20980;-70
2021/12/09 01:48:51;;;;;;;84.03;34.08;;;;;;;5.77;88.12;99570.03;1702799;82;21075;-70
2021/12/09 01:51:18;;;;;;;69.72;35.03;;;;;;;5.76;88.06;99574.44;1707513;82;22279;-70
2021/12/09 01:53:45;;;;;;;90.42;33.38;;;;;;;5.72;88.02;99567.29;1727154;82;21056;-70
2021/12/09 01:56:21;;;;;;;94.20;32.95;;;;;;;5.71;88.04;99572.16;1706409;82;21543;-70
2021/12/09 01:58:45;;;;;;;105.45;31.37;;;;;;;5.70;88.05;99572.28;1687519;82;21081;-69
2021/12/09 02:01:11;;;;;;;63.48;27.67;;;;;;;5.70;88.05;99577.05;1706009;82;21050;-70
2021/12/09 02:03:38;;;;;;;82.05;30.88;;;;;;;5.68;88.04;99574.98;1700449;84;21728;-70
2021/12/09 02:06:04;;;;;;;108.37;31.45;;;;;;;5.66;88.02;99577.36;1719972;82;20981;-69
2021/12/09 02:08:32;;;;;;;117.97;31.02;;;;;;;5.65;88.05;99578.31;1681164;83;21489;-70
2021/12/09 02:10:59;;;;;;;77.42;31.57;;;;;;;5.65;88.07;99579.14;1698554;82;21386;-70
2021/12/09 02:13:26;;;;;;;84.95;32.63;;;;;;;5.66;88.04;99579.98;1707235;82;20995;-71
2021/12/09 02:15:54;;;;;;;77.72;30.60;;;;;;;5.65;88.05;99583.08;1720328;82;21810;-70
2021/12/09 02:18:21;;;;;;;61.90;30.82;;;;;;;5.65;88.02;99588.31;1728693;82;20975;-70
2021/12/09 02:21:21;;;;;;;48.73;30.82;;;;;;;5.62;88.00;99589.86;1718455;82;21410;-70
2021/12/09 02:23:51;;;;;;;67.60;30.48;;;;;;;5.61;88.01;99591.28;1701602;84;20973;-70
2021/12/09 02:26:21;;;;;;;58.63;30.43;;;;;;;5.62;88.04;99593.78;1702274;82;20973;-70
2021/12/09 02:28:48;;;;;;;63.42;29.00;;;;;;;5.62;88.08;99597.72;1679386;84;21821;-70
2021/12/09 02:31:14;;;;;;;52.73;31.07;;;;;;;5.63;88.09;99594.14;1716098;82;21068;-70
2021/12/09 02:33:41;;;;;;;61.73;35.68;;;;;;;5.61;88.05;99597.36;1735009;82;20944;-70
2021/12/09 02:36:07;;;;;;;57.75;30.60;;;;;;;5.59;88.06;99598.38;1697110;82;21003;-70
2021/12/09 02:38:41;;;;;;;62.65;29.65;;;;;;;5.60;88.08;99595.69;1704862;83;21030;-70
2021/12/09 02:41:02;;;;;;;51.45;27.90;;;;;;;5.61;88.09;99603.06;1689000;85;22699;-68
2021/12/09 02:43:30;;;;;;;54.88;28.23;;;;;;;5.60;88.08;99600.92;1690148;84;20988;-70
2021/12/09 02:45:57;;;;;;;56.20;30.35;;;;;;;5.60;88.09;99596.99;1703115;82;21024;-69
2021/12/09 02:48:24;;;;;;;63.30;29.48;;;;;;;5.60;88.08;99600.92;1717267;82;21006;-69
2021/12/09 02:50:50;;;;;;;59.33;28.55;;;;;;;5.60;88.13;99598.30;1722798;82;20960;-69
2021/12/09 02:53:18;;;;;;;65.25;29.52;;;;;;;5.62;88.12;99602.12;1707393;84;22520;-69
2021/12/09 02:55:44;;;;;;;65.92;29.65;;;;;;;5.62;88.11;99604.27;1724406;82;20900;-69
2021/12/09 02:58:12;;;;;;;60.48;31.55;;;;;;;5.60;88.08;99606.16;1703765;82;20960;-69
2021/12/09 03:01:14;;;;;;;52.23;32.45;;;;;;;5.60;88.09;99615.80;1703909;82;21019;-69
2021/12/09 03:03:50;;;;;;;55.67;31.97;;;;;;;5.60;88.12;99611.41;1703243;84;21040;-69
2021/12/09 03:06:15;;;;;;;57.00;34.88;;;;;;;5.59;88.11;99620.18;1705646;82;21920;-69
2021/12/09 03:08:43;;;;;;;52.80;34.25;;;;;;;5.59;88.14;99621.48;1700831;82;21296;-69
2021/12/09 03:11:15;;;;;;;57.98;34.98;;;;;;;5.59;88.18;99625.41;1705437;82;20992;-70
2021/12/09 03:13:43;;;;;;;55.63;35.58;;;;;;;5.61;88.18;99619.63;1726572;82;21112;-69
2021/12/09 03:16:11;;;;;;;49.15;31.02;;;;;;;5.65;88.18;99621.54;1701159;82;21036;-69
2021/12/09 03:18:47;;;;;;;48.98;32.08;;;;;;;5.65;88.19;99619.75;1703910;82;21810;-69
2021/12/09 03:21:22;;;;;;;49.70;28.45;;;;;;;5.65;88.19;99622.38;1706338;82;21007;-70
2021/12/09 03:23:50;;;;;;;44.63;29.60;;;;;;;5.66;88.18;99625.83;1719126;82;20985;-69
2021/12/09 03:26:22;;;;;;;44.05;27.85;;;;;;;5.66;88.19;99624.05;1697926;82;20955;-70
2021/12/09 03:28:47;;;;;;;43.98;25.60;;;;;;;5.66;88.20;99628.45;1705480;82;21023;-70
2021/12/09 03:31:14;;;;;;;40.90;24.87;;;;;;;5.66;88.18;99634.52;1713732;82;21814;-69
2021/12/09 03:33:41;;;;;;;37.53;22.60;;;;;;;5.66;88.15;99635.00;1708947;82;20960;-71
2021/12/09 03:36:07;;;;;;;37.30;23.20;;;;;;;5.65;88.12;99639.41;1724211;82;21416;-69
2021/12/09 03:38:34;;;;;;;37.67;23.73;;;;;;;5.65;88.14;99643.33;1706740;82;22234;-69
2021/12/09 03:41:01;;;;;;;32.88;20.43;;;;;;;5.64;88.12;99642.14;1697376;82;21348;-70
2021/12/09 03:43:28;;;;;;;37.30;21.20;;;;;;;5.63;88.12;99645.23;1661398;84;22649;-69
2021/12/09 03:45:55;;;;;;;40.17;22.27;;;;;;;5.62;88.08;99650.58;1684227;85;21482;-70
2021/12/09 03:48:23;;;;;;;37.17;21.23;;;;;;;5.59;88.08;99650.30;1682824;83;21601;-70
2021/12/09 03:50:50;;;;;;;33.63;22.50;;;;;;;5.59;88.10;99649.47;1684282;85;21016;-69
2021/12/09 03:53:17;;;;;;;33.63;21.77;;;;;;;5.57;88.10;99655.30;1684317;84;21529;-69
2021/12/09 03:55:43;;;;;;;35.28;22.27;;;;;;;5.57;88.13;99661.37;1684959;83;22350;-69
2021/12/09 03:58:10;;;;;;;32.33;21.93;;;;;;;5.57;88.15;99658.75;1663283;85;21412;-70
2021/12/09 04:00:36;;;;;;;33.35;21.25;;;;;;;5.57;88.17;99658.75;1681892;85;21419;-69
2021/12/09 04:03:03;;;;;;;33.55;21.57;;;;;;;5.59;88.18;99656.85;1689607;83;21485;-70
2021/12/09 04:05:29;;;;;;;34.33;22.40;;;;;;;5.59;88.16;99656.85;1714455;83;20947;-69
2021/12/09 04:07:56;;;;;;;35.17;23.85;;;;;;;5.58;88.15;99655.18;1711855;82;22257;-70
2021/12/09 04:10:23;;;;;;;43.28;27.48;;;;;;;5.61;88.16;99657.61;1706985;82;21015;-70
2021/12/09 04:12:49;;;;;;;42.83;29.37;;;;;;;5.63;88.16;99657.49;1714636;82;20955;-69
2021/12/09 04:15:17;;;;;;;38.28;26.57;;;;;;;5.63;88.16;99654.88;1712584;82;21388;-69
2021/12/09 04:17:43;;;;;;;33.42;23.55;;;;;;;5.62;88.15;99655.82;1702042;83;21513;-70
2021/12/09 04:20:12;;;;;;;32.38;22.13;;;;;;;5.62;88.13;99659.75;1703518;83;22643;-70
2021/12/09 04:22:39;;;;;;;33.60;22.75;;;;;;;5.64;88.15;99660.00;1701977;83;21473;-70
2021/12/09 04:25:08;;;;;;;30.35;19.32;;;;;;;5.62;88.11;99656.66;1668926;83;20981;-70
2021/12/09 04:27:35;;;;;;;31.95;21.20;;;;;;;5.62;88.12;99658.44;1704875;83;21164;-69
2021/12/09 04:30:03;;;;;;;33.67;21.25;;;;;;;5.61;88.09;99662.84;1725899;82;20999;-69
2021/12/09 04:32:29;;;;;;;30.70;21.17;;;;;;;5.59;88.09;99652.92;1717567;82;21612;-69
2021/12/09 04:34:57;;;;;;;31.07;20.92;;;;;;;5.57;88.07;99662.68;1714697;82;20995;-70
2021/12/09 04:37:23;;;;;;;30.65;20.90;;;;;;;5.55;88.07;99659.34;1731486;82;21059;-69
2021/12/09 04:39:49;;;;;;;32.90;20.57;;;;;;;5.56;88.11;99663.63;1687885;83;21003;-70
2021/12/09 04:42:16;;;;;;;30.70;21.65;;;;;;;5.56;88.11;99668.86;1694161;83;21009;-69
2021/12/09 04:44:42;;;;;;;30.68;20.95;;;;;;;5.58;88.13;99664.83;1710216;82;21777;-69
2021/12/09 04:47:09;;;;;;;30.88;20.82;;;;;;;5.59;88.09;99669.11;1722872;82;20948;-69
2021/12/09 04:49:36;;;;;;;31.95;21.50;;;;;;;5.60;88.12;99672.97;1733969;82;21414;-69
2021/12/09 04:52:04;;;;;;;27.90;19.30;;;;;;;5.60;88.10;99669.51;1725571;82;21528;-70
2021/12/09 04:54:32;;;;;;;28.40;19.92;;;;;;;5.61;88.08;99681.66;1708003;83;20969;-70
2021/12/09 04:56:59;;;;;;;29.02;19.73;;;;;;;5.60;88.10;99673.44;1708377;84;22491;-69
2021/12/09 04:59:25;;;;;;;28.65;19.07;;;;;;;5.61;88.07;99681.19;1699390;83;21455;-70
2021/12/09 05:01:52;;;;;;;28.95;19.27;;;;;;;5.62;88.08;99688.09;1749242;82;21259;-68
2021/12/09 05:04:18;;;;;;;28.07;18.92;;;;;;;5.62;88.04;99699.05;1718964;82;20964;-71
2021/12/09 05:06:45;;;;;;;29.25;21.68;;;;;;;5.59;88.00;99696.14;1742899;82;21000;-71
2021/12/09 05:09:16;;;;;;;29.10;21.12;;;;;;;5.57;88.00;99701.97;1725927;82;22186;-70
2021/12/09 05:14:06;;;;;;;32.50;24.20;;;;;;;5.57;88.01;99705.06;1681418;82;21028;-72
2021/12/09 05:16:33;;;;;;;30.15;23.65;;;;;;;5.58;88.05;99706.27;1700478;82;21515;-72
2021/12/09 05:19:00;;;;;;;28.47;20.57;;;;;;;5.59;88.04;99713.17;1748748;81;21433;-72
2021/12/09 05:21:34;;;;;;;30.97;21.12;;;;;;;5.59;87.99;99710.55;1702742;82;21003;-70
2021/12/09 05:23:59;;;;;;;31.95;21.70;;;;;;;5.57;87.99;99716.38;1711118;82;21036;-70
2021/12/09 05:26:30;;;;;;;32.63;21.82;;;;;;;5.58;88.01;99721.98;1710357;82;21055;-70
2021/12/09 05:28:56;;;;;;;32.65;21.68;;;;;;;5.60;88.00;99721.42;1706410;82;21470;-73
2021/12/09 05:34:13;;;;;;;32.48;21.75;;;;;;;5.63;87.96;99726.45;1710952;83;21799;-69
2021/12/09 05:36:39;;;;;;;32.90;22.35;;;;;;;5.62;87.93;99735.73;1725282;82;21084;-69
2021/12/09 05:39:09;;;;;;;33.20;21.73;;;;;;;5.61;87.93;99742.75;1709499;82;21578;-69
2021/12/09 05:41:36;;;;;;;30.82;20.32;;;;;;;5.60;87.90;99743.70;1742702;82;20979;-69
2021/12/09 05:44:04;;;;;;;33.02;21.65;;;;;;;5.60;87.91;99753.34;1683653;82;20971;-67
2021/12/09 05:46:33;;;;;;;32.28;21.42;;;;;;;5.60;87.89;99751.55;1686588;82;21845;-68
2021/12/09 05:49:01;;;;;;;32.73;21.80;;;;;;;5.62;87.88;99752.75;1683453;84;20973;-67
2021/12/09 05:51:27;;;;;;;32.35;21.85;;;;;;;5.62;87.84;99760.61;1683599;84;20969;-67
2021/12/09 05:53:55;;;;;;;31.68;21.40;;;;;;;5.61;87.82;99765.48;1738193;82;20988;-67
2021/12/09 05:56:22;;;;;;;30.92;20.60;;;;;;;5.61;87.81;99762.39;1737744;81;21083;-68
2021/12/09 05:58:49;;;;;;;31.85;21.15;;;;;;;5.61;87.78;99763.70;1742843;82;21832;-67
2021/12/09 06:01:16;;;;;;;31.73;21.15;;;;;;;5.62;87.81;99768.47;1738836;82;20999;-67
2021/12/09 06:03:42;;;;;;;33.13;21.77;;;;;;;5.60;87.76;99769.89;1734842;82;20976;-68
2021/12/09 06:06:09;;;;;;;31.15;21.27;;;;;;;5.58;87.75;99776.99;1712221;82;21033;-68
2021/12/09 06:08:38;;;;;;;33.88;21.45;;;;;;;5.57;87.76;99781.87;1708124;84;21021;-68
2021/12/09 06:11:07;;;;;;;30.90;22.10;;;;;;;5.57;87.73;99779.72;1708115;84;22312;-68
2021/12/09 06:13:37;;;;;;;30.43;21.17;;;;;;;5.57;87.72;99781.03;1734525;82;21026;-69
2021/12/09 06:16:03;;;;;;;30.95;21.57;;;;;;;5.57;87.73;99787.11;1681521;82;20938;-69
2021/12/09 06:18:30;;;;;;;29.80;20.40;;;;;;;5.57;87.73;99788.41;1683708;84;21073;-68
2021/12/09 06:20:56;;;;;;;29.40;20.40;;;;;;;5.59;87.70;99793.08;1683881;84;21012;-68
2021/12/09 06:23:23;;;;;;;30.08;21.55;;;;;;;5.58;87.68;99795.33;1683608;85;21780;-68
2021/12/09 06:25:52;;;;;;;32.50;21.45;;;;;;;5.59;87.67;99802.24;1701847;82;21063;-68
2021/12/09 06:28:19;;;;;;;28.55;20.10;;;;;;;5.61;87.67;99804.31;1731185;82;21005;-68
2021/12/09 06:30:46;;;;;;;29.52;20.52;;;;;;;5.61;87.66;99804.31;1720244;82;21077;-68
2021/12/09 06:33:13;;;;;;;30.72;21.40;;;;;;;5.62;87.64;99807.77;1704527;82;21118;-68
2021/12/09 06:35:39;;;;;;;29.80;19.85;;;;;;;5.62;87.62;99809.08;1743340;82;22444;-68
2021/12/09 06:38:11;;;;;;;30.40;20.57;;;;;;;5.63;87.61;99808.97;1729663;82;20941;-69
2021/12/09 06:40:35;;;;;;;28.92;19.75;;;;;;;5.63;87.58;99819.45;1691297;82;20981;-68
2021/12/09 06:43:01;;;;;;;31.70;20.88;;;;;;;5.62;87.55;99819.56;1672163;85;20974;-68
2021/12/09 06:45:28;;;;;;;29.98;20.43;;;;;;;5.60;87.55;99818.36;1684404;81;21063;-68
2021/12/09 06:47:54;;;;;;;28.32;19.85;;;;;;;5.59;87.55;99820.58;1707195;81;21818;-68
2021/12/09 06:50:21;;;;;;;26.27;19.32;;;;;;;5.60;87.53;99826.69;1744854;81;20952;-68
2021/12/09 06:52:48;;;;;;;27.45;20.43;;;;;;;5.60;87.52;99824.91;1717714;83;20952;-68
2021/12/09 06:55:15;;;;;;;32.80;21.17;;;;;;;5.57;87.52;99823.78;1714777;81;20996;-68
2021/12/09 06:57:45;;;;;;;26.97;19.57;;;;;;;5.59;87.55;99832.84;1753317;81;20952;-68
2021/12/09 07:00:17;;;;;;;27.50;19.57;;;;;;;5.61;87.55;99833.61;1731522;81;22230;-68
2021/12/09 07:02:44;;;;;;;30.72;20.75;;;;;;;5.62;87.57;99834.80;1740940;81;20988;-68
2021/12/09 07:05:13;;;;;;;32.30;20.37;;;;;;;5.62;87.52;99837.42;1753080;81;21393;-69
2021/12/09 07:07:39;;;;;;;28.62;19.80;;;;;;;5.62;87.55;99843.14;1726529;81;21395;-67
2021/12/09 07:10:08;;;;;;;29.45;19.82;;;;;;;5.64;87.54;99838.63;1712001;83;21004;-68
2021/12/09 07:12:37;;;;;;;29.40;19.98;;;;;;;5.65;87.51;99841.61;1716151;81;21004;-68
2021/12/09 07:15:07;;;;;;;27.45;19.65;;;;;;;5.63;87.49;99845.65;1713410;83;20995;-68
2021/12/09 07:17:34;;;;;;;29.18;20.23;;;;;;;5.63;87.48;99846.95;1711350;83;21031;-68
2021/12/09 07:20:04;;;;;;;31.52;20.27;;;;;;;5.63;87.47;99847.44;1723362;81;21200;-67
2021/12/09 07:22:34;;;;;;;26.70;19.00;;;;;;;5.64;87.47;99849.95;1752459;81;21035;-67
2021/12/09 07:25:00;;;;;;;27.95;19.23;;;;;;;5.66;87.48;99853.29;1753191;81;21849;-70
2021/12/09 07:27:26;;;;;;;30.95;20.17;;;;;;;5.66;87.45;99853.29;1753054;81;20991;-69
2021/12/09 07:29:54;;;;;;;29.67;19.85;;;;;;;5.68;87.44;99858.42;1742326;81;21051;-69
2021/12/09 07:32:20;;;;;;;30.40;21.07;;;;;;;5.68;87.44;99857.95;1714286;83;21432;-71
2021/12/09 07:34:48;;;;;;;32.23;21.50;;;;;;;5.70;87.42;99863.12;1714559;83;20968;-70
2021/12/09 07:37:15;;;;;;;31.30;20.92;;;;;;;5.69;87.39;99864.90;1717004;81;22742;-70
2021/12/09 07:39:42;;;;;;;33.48;20.77;;;;;;;5.70;87.41;99863.95;1717695;83;20972;-71
2021/12/09 07:42:11;;;;;;;60.65;22.73;;;;;;;5.70;87.38;99863.95;1717728;83;20972;-71
2021/12/09 07:44:38;;;;;;;37.50;21.45;;;;;;;5.71;87.36;99864.31;1719664;83;21628;-71
2021/12/09 07:47:05;;;;;;;31.20;19.15;;;;;;;5.73;87.35;99866.83;1724617;83;21562;-70
2021/12/09 07:49:31;;;;;;;30.23;19.50;;;;;;;5.74;87.34;99871.96;1725435;83;22433;-71
2021/12/09 07:51:58;;;;;;;33.53;21.52;;;;;;;5.73;87.30;99876.84;1725407;83;21390;-70
2021/12/09 07:54:25;;;;;;;37.25;21.68;;;;;;;5.72;87.30;99875.63;1724010;81;21040;-71
2021/12/09 07:56:51;;;;;;;31.15;20.27;;;;;;;5.74;87.29;99881.13;1720575;83;21007;-71
2021/12/09 07:59:18;;;;;;;33.15;21.12;;;;;;;5.74;87.27;99885.06;1720546;83;20957;-71
2021/12/09 08:01:44;;;;;;;30.40;21.30;;;;;;;5.74;87.28;99885.06;1738989;81;21825;-70
2021/12/09 08:04:11;;;;;;;31.75;21.02;;;;;;;5.75;87.30;99884.12;1753503;81;20952;-70
2021/12/09 08:06:37;;;;;;;32.98;21.05;;;;;;;5.78;87.30;99891.40;1753630;81;21003;-71
2021/12/09 08:09:05;;;;;;;33.90;21.30;;;;;;;5.80;87.30;99886.45;1753536;81;20987;-72
2021/12/09 08:11:33;;;;;;;34.35;20.23;;;;;;;5.80;87.25;99889.54;1735784;81;20961;-70
2021/12/09 08:14:01;;;;;;;31.95;22.07;;;;;;;5.78;87.24;99889.61;1714092;82;21843;-70
2021/12/09 08:16:37;;;;;;;32.40;22.65;;;;;;;5.78;87.23;99892.23;1693550;83;20947;-70
2021/12/09 08:19:01;;;;;;;32.53;22.07;;;;;;;5.80;87.27;99897.40;1706949;84;20956;-70
2021/12/09 08:21:28;;;;;;;33.15;22.27;;;;;;;5.81;87.29;99897.30;1707097;84;20976;-70
2021/12/09 08:23:54;;;;;;;33.18;23.38;;;;;;;5.83;87.27;99898.02;1707226;84;21029;-71
2021/12/09 08:26:21;;;;;;;32.45;22.85;;;;;;;5.84;87.27;99900.17;1710284;82;21860;-70
2021/12/09 08:28:47;;;;;;;35.92;27.10;;;;;;;5.86;87.27;99900.90;1737500;81;21506;-73
2021/12/09 08:31:14;;;;;;;37.15;28.47;;;;;;;5.83;87.21;99903.27;1722105;81;21581;-71
2021/12/09 08:33:40;;;;;;;42.58;33.10;;;;;;;5.84;87.21;99894.93;1725680;82;21011;-72
2021/12/09 08:36:07;;;;;;;42.25;33.65;;;;;;;5.81;87.18;99897.30;1745081;82;21008;-72
2021/12/09 08:38:34;;;;;;;38.20;30.08;;;;;;;5.81;87.20;99897.30;1738047;82;22253;-71
2021/12/09 08:41:02;;;;;;;36.35;26.73;;;;;;;5.85;87.23;99896.13;1710606;82;21015;-72
2021/12/09 08:43:28;;;;;;;35.35;26.95;;;;;;;5.85;87.18;99900.53;1703597;82;20977;-70
2021/12/09 08:45:55;;;;;;;34.85;26.57;;;;;;;5.84;87.19;99899.70;1715534;82;21503;-71
2021/12/09 08:48:23;;;;;;;40.20;29.55;;;;;;;5.85;87.18;99897.91;1730550;82;21414;-70
2021/12/09 08:50:50;;;;;;;38.98;31.07;;;;;;;5.85;87.20;99889.58;1723915;82;21820;-72
2021/12/09 08:53:20;;;;;;;41.83;32.35;;;;;;;5.88;87.18;99895.08;1701695;82;21019;-70
2021/12/09 08:55:47;;;;;;;41.42;28.23;;;;;;;5.89;87.19;99894.16;1719139;83;21070;-68
2021/12/09 08:58:14;;;;;;;39.92;29.72;;;;;;;5.89;87.18;99891.55;1721355;81;21084;-69
2021/12/09 09:00:41;;;;;;;37.03;30.10;;;;;;;5.91;87.16;99900.16;1722715;81;20960;-68
2021/12/09 09:03:07;;;;;;;40.00;30.55;;;;;;;5.92;87.16;99893.98;1732882;82;22403;-69
2021/12/09 09:05:34;;;;;;;38.98;30.40;;;;;;;5.93;87.13;99899.11;1710799;82;21464;-70
2021/12/09 09:08:01;;;;;;;40.30;31.62;;;;;;;5.93;87.08;99892.56;1711669;82;21502;-69
2021/12/09 09:10:31;;;;;;;41.77;28.95;;;;;;;5.94;87.11;99898.16;1716711;82;21168;-70
2021/12/09 09:12:57;;;;;;;38.60;28.27;;;;;;;5.95;87.12;99891.97;1719678;82;21060;-69
2021/12/09 09:15:26;;;;;;;37.03;27.77;;;;;;;5.96;87.08;99895.44;1701900;83;21832;-69
2021/12/09 09:17:53;;;;;;;37.63;27.80;;;;;;;5.95;87.05;99899.00;1697111;84;21631;-70
2021/12/09 09:20:24;;;;;;;32.48;25.97;;;;;;;5.93;87.00;99894.34;1715114;82;21034;-69
2021/12/09 09:22:50;;;;;;;36.23;25.02;;;;;;;5.94;87.00;99899.95;1715750;83;21527;-69
2021/12/09 09:25:20;;;;;;;35.40;26.73;;;;;;;5.90;87.00;99891.47;1715911;83;21694;-68
2021/12/09 09:27:48;;;;;;;38.55;30.32;;;;;;;5.89;86.96;99897.62;1715835;82;21803;-68
2021/12/09 09:30:18;;;;;;;37.10;27.50;;;;;;;5.85;86.91;99900.53;1715643;83;21075;-69
2021/12/09 09:32:47;;;;;;;37.00;26.40;;;;;;;5.84;86.94;99903.63;1715769;82;21494;-69
2021/12/09 09:35:15;;;;;;;33.02;23.67;;;;;;;5.85;86.97;99899.22;1716456;82;21039;-69
2021/12/09 09:37:41;;;;;;;28.52;19.87;;;;;;;5.88;87.01;99900.32;1718338;82;21032;-69
2021/12/09 09:40:13;;;;;;;27.77;17.95;;;;;;;5.87;86.98;99906.50;1717911;81;21837;-69
2021/12/09 09:45:13;;;;;;;28.52;19.40;;;;;;;5.84;86.92;99909.34;1718016;83;21035;-69
2021/12/09 09:47:40;;;;;;;28.17;19.73;;;;;;;5.82;86.93;99909.45;1729426;83;20975;-69
2021/12/09 09:50:08;;;;;;;26.68;19.02;;;;;;;5.81;86.96;99909.09;1731516;81;20877;-69
2021/12/09 09:52:40;;;;;;;31.07;20.08;;;;;;;5.81;86.99;99909.09;1705760;81;21046;-68
2021/12/09 09:55:09;;;;;;;30.72;20.37;;;;;;;5.85;87.02;99911.02;1730741;82;20998;-69
2021/12/09 09:57:38;;;;;;;29.42;20.57;;;;;;;5.87;87.04;99907.81;1720397;82;20994;-70
2021/12/09 10:00:08;;;;;;;28.90;19.67;;;;;;;5.87;87.01;99911.27;1718596;83;21499;-69
2021/12/09 10:02:36;;;;;;;32.65;21.23;;;;;;;5.88;87.01;99916.87;1702069;83;21061;-69
2021/12/09 10:05:06;;;;;;;30.37;20.77;;;;;;;5.88;87.00;99912.11;1737196;82;21828;-68
2021/12/09 10:07:35;;;;;;;27.07;20.08;;;;;;;5.87;86.96;99912.59;1705506;83;38256;-69
2021/12/09 10:10:07;;;;;;;29.52;19.90;;;;;;;5.85;86.91;99916.26;1709115;82;20972;-69
2021/12/09 10:12:34;;;;;;;34.35;22.77;;;;;;;5.85;86.94;99917.57;1744300;82;21473;-69
2021/12/09 10:15:00;;;;;;;32.38;24.00;;;;;;;5.87;86.97;99923.54;1733006;82;21672;-68
2021/12/09 10:17:28;;;;;;;35.35;22.73;;;;;;;5.87;86.98;99920.92;1734694;81;22427;-68
2021/12/09 10:19:58;;;;;;;58.17;24.32;;;;;;;5.89;87.00;99921.69;1744365;82;21001;-68
2021/12/09 10:22:33;;;;;;;32.95;19.73;;;;;;;5.90;87.02;99920.30;1727293;83;20979;-68
2021/12/09 10:25:01;;;;;;;30.82;22.05;;;;;;;5.90;86.96;99915.05;1756753;81;21509;-71
2021/12/09 10:27:33;;;;;;;31.73;22.40;;;;;;;5.89;86.97;99925.61;1736868;81;21565;-69
2021/12/09 10:30:14;;;;;;;29.92;20.52;;;;;;;5.90;87.00;99920.73;1731581;82;21839;-70
2021/12/09 10:32:40;;;;;;;29.67;18.77;;;;;;;5.93;87.03;99928.41;1701818;83;21424;-70
2021/12/09 10:35:20;;;;;;;26.23;19.30;;;;;;;5.95;87.06;99926.05;1731504;83;20992;-70
2021/12/09 10:37:49;;;;;;;31.00;19.95;;;;;;;5.96;87.01;99932.13;1700705;84;21550;-69
2021/12/09 10:40:25;;;;;;;25.20;17.30;;;;;;;5.94;86.98;99925.69;1700632;83;21013;-69
2021/12/09 10:42:57;;;;;;;29.35;18.87;;;;;;;5.97;86.99;99932.50;1700759;84;21846;-69
2021/12/09 10:45:30;;;;;;;119.70;27.35;;;;;;;5.94;86.92;99933.55;1724793;82;21024;-71
2021/12/09 10:48:27;;;;;;;46.80;23.12;;;;;;;5.93;86.95;99941.05;1691018;83;21014;-69
2021/12/09 10:51:13;;;;;;;28.77;20.35;;;;;;;5.94;86.99;99934.86;1688831;83;21471;-70
2021/12/09 10:53:46;;;;;;;29.15;19.85;;;;;;;5.95;86.98;99937.02;1690925;84;20948;-70
2021/12/09 10:56:11;;;;;;;32.73;20.10;;;;;;;5.93;86.98;99933.19;1709384;83;21830;-69
2021/12/09 10:58:40;;;;;;;28.45;20.15;;;;;;;5.89;86.94;99935.62;1708616;83;21036;-69
2021/12/09 11:01:15;;;;;;;26.48;19.00;;;;;;;5.89;86.98;99936.09;1699887;82;21394;-70
2021/12/09 11:03:50;;;;;;;26.20;17.10;;;;;;;5.89;87.03;99930.38;1712024;83;21019;-70
2021/12/09 11:06:33;;;;;;;27.05;18.77;;;;;;;5.91;87.04;99938.17;1711326;83;21079;-70
2021/12/09 11:09:01;;;;;;;23.13;16.13;;;;;;;5.88;86.99;99937.84;1710927;83;21861;-72
2021/12/09 11:11:42;;;;;;;25.40;17.98;;;;;;;5.90;87.04;99934.71;1711045;83;21221;-69
2021/12/09 11:14:17;;;;;;;26.23;17.85;;;;;;;5.89;87.03;99936.09;1719033;82;20948;-70
2021/12/09 11:16:52;;;;;;;25.52;17.32;;;;;;;5.89;87.04;99936.09;1684486;82;21483;-70
2021/12/09 11:22:07;;;;;;;23.15;15.43;;;;;;;5.89;87.03;99946.11;1723873;82;22528;-70
2021/12/09 11:24:42;;;;;;;22.67;15.93;;;;;;;5.88;87.01;99948.34;1691458;83;21583;-72
2021/12/09 11:27:10;;;;;;;21.15;15.68;;;;;;;5.86;87.04;99942.83;1710613;83;20977;-70
2021/12/09 11:29:48;;;;;;;28.90;14.95;;;;;;;5.87;87.02;99944.03;1712238;83;21550;-68
2021/12/09 11:34:59;;;;;;;24.75;15.00;;;;;;;5.85;86.96;99938.06;1698996;82;21845;-69
2021/12/09 11:40:18;;;;;;;39.38;14.15;;;;;;;5.85;86.99;99942.00;1713399;83;21031;-69
2021/12/09 11:45:15;;;;;;;17.70;12.23;;;;;;;5.85;86.92;99951.64;1712112;83;21017;-68
2021/12/09 11:47:43;;;;;;;16.23;11.97;;;;;;;5.82;86.84;99947.45;1719366;83;21778;-69
2021/12/09 11:50:14;;;;;;;16.95;11.10;;;;;;;5.80;86.80;99949.81;1728783;81;21142;-69
2021/12/09 11:52:43;;;;;;;18.05;11.85;;;;;;;5.79;86.81;99946.36;1726892;81;20967;-69